sensor_id;sensor_type;location;lat;lon;timestamp;pressure;altitude;pressure_sealevel;temperature;humidity
46955;BME280;32708;51.212;6.788;2023-07-30T00:00:01;100370.50;;;28.34;77.66
46955;BME280;32708;51.212;6.788;2023-07-30T00:02:29;100377.13;;;28.65;75.90
46955;BME280;32708;51.212;6.788;2023-07-30T00:04:56;100368.72;;;28.40;74.45
46955;BME280;32708;51.212;6.788;2023-07-30T00:07:22;100364.19;;;28.55;74.47
46955;BME280;32708;51.212;6.788;2023-07-30T00:09:48;100356.59;;;28.30;75.15
46955;BME280;32708;51.212;6.788;2023-07-30T00:12:14;100362.06;;;28.08;73.99
46955;BME280;32708;51.212;6.788;2023-07-30T00:14:40;100364.09;;;27.95;75.26
46955;BME280;32708;51.212;6.788;2023-07-30T00:17:09;100358.59;;;28.30;74.66
46955;BME280;32708;51.212;6.788;2023-07-30T00:19:35;100359.66;;;28.70;72.35
46955;BME280;32708;51.212;6.788;2023-07-30T00:22:01;100355.44;;;28.28;70.54
46955;BME280;32708;51.212;6.788;2023-07-30T00:24:28;100349.28;;;27.94;73.38
46955;BME280;32708;51.212;6.788;2023-07-30T00:26:54;100357.56;;;28.49;71.88
46955;BME280;32708;51.212;6.788;2023-07-30T00:29:20;100368.38;;;28.38;71.47
46955;BME280;32708;51.212;6.788;2023-07-30T00:31:46;100364.31;;;28.13;73.01
46955;BME280;32708;51.212;6.788;2023-07-30T00:34:15;100374.88;;;28.60;71.10
46955;BME280;32708;51.212;6.788;2023-07-30T00:36:41;100366.31;;;28.64;69.97
46955;BME280;32708;51.212;6.788;2023-07-30T00:39:07;100366.13;;;28.33;71.43
46955;BME280;32708;51.212;6.788;2023-07-30T00:41:37;100363.66;;;28.22;71.62
46955;BME280;32708;51.212;6.788;2023-07-30T00:44:04;100368.16;;;28.45;71.11
46955;BME280;32708;51.212;6.788;2023-07-30T00:46:30;100364.00;;;28.37;71.36
46955;BME280;32708;51.212;6.788;2023-07-30T00:48:59;100365.91;;;28.40;69.80
46955;BME280;32708;51.212;6.788;2023-07-30T00:51:27;100367.00;;;28.30;71.16
46955;BME280;32708;51.212;6.788;2023-07-30T00:53:55;100364.06;;;28.20;71.37
46955;BME280;32708;51.212;6.788;2023-07-30T00:56:22;100363.72;;;27.80;71.25
46955;BME280;32708;51.212;6.788;2023-07-30T00:58:49;100370.56;;;27.92;72.09
46955;BME280;32708;51.212;6.788;2023-07-30T01:01:15;100378.25;;;28.17;71.13
46955;BME280;32708;51.212;6.788;2023-07-30T01:03:42;100368.56;;;28.05;71.43
46955;BME280;32708;51.212;6.788;2023-07-30T01:06:08;100375.56;;;28.39;69.79
46955;BME280;32708;51.212;6.788;2023-07-30T01:08:34;100374.97;;;28.06;69.54
46955;BME280;32708;51.212;6.788;2023-07-30T01:11:04;100387.19;;;27.99;71.15
46955;BME280;32708;51.212;6.788;2023-07-30T01:13:33;100378.31;;;27.88;72.33
46955;BME280;32708;51.212;6.788;2023-07-30T01:16:02;100381.44;;;28.79;68.79
46955;BME280;32708;51.212;6.788;2023-07-30T01:18:30;100382.66;;;28.31;70.56
46955;BME280;32708;51.212;6.788;2023-07-30T01:21:00;100385.75;;;28.20;70.28
46955;BME280;32708;51.212;6.788;2023-07-30T01:23:26;100385.09;;;28.41;69.84
46955;BME280;32708;51.212;6.788;2023-07-30T01:26:08;100385.75;;;27.94;71.09
46955;BME280;32708;51.212;6.788;2023-07-30T01:28:43;100389.59;;;28.51;69.02
46955;BME280;32708;51.212;6.788;2023-07-30T01:31:16;100391.63;;;28.51;68.59
46955;BME280;32708;51.212;6.788;2023-07-30T01:33:49;100398.09;;;28.10;69.14
46955;BME280;32708;51.212;6.788;2023-07-30T01:36:20;100400.25;;;28.18;68.04
46955;BME280;32708;51.212;6.788;2023-07-30T01:38:49;100401.25;;;28.12;68.95
46955;BME280;32708;51.212;6.788;2023-07-30T01:41:16;100400.00;;;28.13;68.72
46955;BME280;32708;51.212;6.788;2023-07-30T01:43:42;100393.31;;;27.68;69.35
46955;BME280;32708;51.212;6.788;2023-07-30T01:46:08;100404.94;;;28.21;68.12
46955;BME280;32708;51.212;6.788;2023-07-30T01:48:34;100414.31;;;27.48;69.44
46955;BME280;32708;51.212;6.788;2023-07-30T01:51:00;100407.97;;;27.31;71.23
46955;BME280;32708;51.212;6.788;2023-07-30T01:53:26;100404.16;;;27.95;68.71
46955;BME280;32708;51.212;6.788;2023-07-30T01:55:52;100395.09;;;28.42;67.50
46955;BME280;32708;51.212;6.788;2023-07-30T01:58:18;100391.94;;;28.28;67.23
46955;BME280;32708;51.212;6.788;2023-07-30T02:00:45;100401.66;;;27.85;68.29
46955;BME280;32708;51.212;6.788;2023-07-30T02:03:11;100404.38;;;27.88;68.87
46955;BME280;32708;51.212;6.788;2023-07-30T02:05:37;100415.53;;;27.47;70.36
46955;BME280;32708;51.212;6.788;2023-07-30T02:08:03;100410.06;;;27.56;70.42
46955;BME280;32708;51.212;6.788;2023-07-30T02:10:30;100408.94;;;27.82;69.53
46955;BME280;32708;51.212;6.788;2023-07-30T02:12:56;100404.41;;;27.43;68.89
46955;BME280;32708;51.212;6.788;2023-07-30T02:15:22;100400.78;;;28.13;67.92
46955;BME280;32708;51.212;6.788;2023-07-30T02:17:49;100395.41;;;27.64;70.46
46955;BME280;32708;51.212;6.788;2023-07-30T02:20:15;100398.78;;;27.59;69.54
46955;BME280;32708;51.212;6.788;2023-07-30T02:22:41;100408.41;;;27.87;69.28
46955;BME280;32708;51.212;6.788;2023-07-30T02:25:08;100412.34;;;27.61;68.98
46955;BME280;32708;51.212;6.788;2023-07-30T02:27:34;100403.16;;;28.02;68.02
46955;BME280;32708;51.212;6.788;2023-07-30T02:30:00;100402.16;;;27.38;70.17
46955;BME280;32708;51.212;6.788;2023-07-30T02:32:26;100401.22;;;27.86;69.29
46955;BME280;32708;51.212;6.788;2023-07-30T02:34:52;100401.41;;;27.50;69.23
46955;BME280;32708;51.212;6.788;2023-07-30T02:37:18;100399.09;;;26.87;71.96
46955;BME280;32708;51.212;6.788;2023-07-30T02:39:44;100398.25;;;27.19;71.29
46955;BME280;32708;51.212;6.788;2023-07-30T02:42:10;100404.97;;;27.09;71.51
46955;BME280;32708;51.212;6.788;2023-07-30T02:44:36;100399.56;;;27.31;71.25
46955;BME280;32708;51.212;6.788;2023-07-30T02:47:02;100409.75;;;27.54;70.54
46955;BME280;32708;51.212;6.788;2023-07-30T02:49:29;100406.38;;;27.88;68.19
46955;BME280;32708;51.212;6.788;2023-07-30T02:51:55;100404.38;;;27.30;70.03
46955;BME280;32708;51.212;6.788;2023-07-30T02:54:21;100405.59;;;27.87;68.68
46955;BME280;32708;51.212;6.788;2023-07-30T02:56:48;100413.78;;;27.82;68.56
46955;BME280;32708;51.212;6.788;2023-07-30T02:59:14;100413.13;;;27.90;68.71
46955;BME280;32708;51.212;6.788;2023-07-30T03:01:40;100412.88;;;27.72;68.89
46955;BME280;32708;51.212;6.788;2023-07-30T03:04:06;100415.88;;;27.78;68.55
46955;BME280;32708;51.212;6.788;2023-07-30T03:06:32;100417.75;;;27.39;69.49
46955;BME280;32708;51.212;6.788;2023-07-30T03:08:58;100426.56;;;27.25;70.01
46955;BME280;32708;51.212;6.788;2023-07-30T03:11:24;100423.16;;;27.46;69.53
46955;BME280;32708;51.212;6.788;2023-07-30T03:13:50;100418.34;;;27.47;69.59
46955;BME280;32708;51.212;6.788;2023-07-30T03:16:16;100424.63;;;26.40;72.54
46955;BME280;32708;51.212;6.788;2023-07-30T03:18:43;100430.63;;;26.02;74.98
46955;BME280;32708;51.212;6.788;2023-07-30T03:21:09;100420.59;;;26.57;71.92
46955;BME280;32708;51.212;6.788;2023-07-30T03:23:35;100429.97;;;27.00;72.27
46955;BME280;32708;51.212;6.788;2023-07-30T03:26:02;100432.78;;;25.75;75.22
46955;BME280;32708;51.212;6.788;2023-07-30T03:28:28;100430.78;;;25.95;75.24
46955;BME280;32708;51.212;6.788;2023-07-30T03:30:54;100428.03;;;26.12;74.81
46955;BME280;32708;51.212;6.788;2023-07-30T03:33:20;100429.13;;;26.34;71.87
46955;BME280;32708;51.212;6.788;2023-07-30T03:35:47;100434.88;;;26.63;71.09
46955;BME280;32708;51.212;6.788;2023-07-30T03:38:14;100433.94;;;26.33;71.90
46955;BME280;32708;51.212;6.788;2023-07-30T03:40:40;100430.84;;;27.13;69.64
46955;BME280;32708;51.212;6.788;2023-07-30T03:43:06;100435.56;;;27.32;68.92
46955;BME280;32708;51.212;6.788;2023-07-30T03:45:32;100441.69;;;27.43;69.11
46955;BME280;32708;51.212;6.788;2023-07-30T03:47:59;100448.09;;;26.95;70.03
46955;BME280;32708;51.212;6.788;2023-07-30T03:50:25;100447.97;;;27.48;67.96
46955;BME280;32708;51.212;6.788;2023-07-30T03:52:51;100448.25;;;27.37;68.30
46955;BME280;32708;51.212;6.788;2023-07-30T03:55:17;100442.69;;;26.88;69.17
46955;BME280;32708;51.212;6.788;2023-07-30T03:57:43;100440.56;;;27.25;68.96
46955;BME280;32708;51.212;6.788;2023-07-30T04:00:10;100442.63;;;26.39;71.02
46955;BME280;32708;51.212;6.788;2023-07-30T04:02:42;100442.84;;;27.30;68.77
46955;BME280;32708;51.212;6.788;2023-07-30T04:05:08;100446.66;;;26.18;70.68
46955;BME280;32708;51.212;6.788;2023-07-30T04:07:34;100441.63;;;26.66;70.87
46955;BME280;32708;51.212;6.788;2023-07-30T04:10:00;100441.69;;;26.46;71.44
46955;BME280;32708;51.212;6.788;2023-07-30T04:12:26;100431.91;;;26.34;71.12
46955;BME280;32708;51.212;6.788;2023-07-30T04:14:52;100423.16;;;27.17;68.29
46955;BME280;32708;51.212;6.788;2023-07-30T04:17:18;100426.44;;;27.45;67.18
46955;BME280;32708;51.212;6.788;2023-07-30T04:19:48;100443.00;;;27.39;67.56
46955;BME280;32708;51.212;6.788;2023-07-30T04:22:14;100442.16;;;27.55;67.94
46955;BME280;32708;51.212;6.788;2023-07-30T04:24:40;100445.13;;;27.02;69.07
46955;BME280;32708;51.212;6.788;2023-07-30T04:27:07;100444.31;;;27.92;66.99
46955;BME280;32708;51.212;6.788;2023-07-30T04:29:34;100451.16;;;27.62;65.44
46955;BME280;32708;51.212;6.788;2023-07-30T04:32:00;100443.72;;;26.78;69.61
46955;BME280;32708;51.212;6.788;2023-07-30T04:34:27;100452.16;;;27.10;69.18
46955;BME280;32708;51.212;6.788;2023-07-30T04:36:53;100445.41;;;26.03;72.10
46955;BME280;32708;51.212;6.788;2023-07-30T04:39:20;100463.06;;;26.36;72.26
46955;BME280;32708;51.212;6.788;2023-07-30T04:41:46;100463.75;;;26.24;72.29
46955;BME280;32708;51.212;6.788;2023-07-30T04:44:12;100458.00;;;26.67;70.25
46955;BME280;32708;51.212;6.788;2023-07-30T04:46:38;100459.53;;;26.52;73.18
46955;BME280;32708;51.212;6.788;2023-07-30T04:49:04;100464.25;;;26.55;70.67
46955;BME280;32708;51.212;6.788;2023-07-30T04:51:31;100471.50;;;25.96;74.92
46955;BME280;32708;51.212;6.788;2023-07-30T04:53:57;100469.16;;;25.95;73.82
46955;BME280;32708;51.212;6.788;2023-07-30T04:56:23;100459.78;;;26.57;70.92
46955;BME280;32708;51.212;6.788;2023-07-30T04:58:52;100468.72;;;26.52;71.78
46955;BME280;32708;51.212;6.788;2023-07-30T05:01:19;100466.09;;;26.25;71.83
46955;BME280;32708;51.212;6.788;2023-07-30T05:03:46;100466.44;;;26.27;72.65
46955;BME280;32708;51.212;6.788;2023-07-30T05:06:12;100469.41;;;26.20;71.45
46955;BME280;32708;51.212;6.788;2023-07-30T05:08:38;100463.41;;;26.02;73.17
46955;BME280;32708;51.212;6.788;2023-07-30T05:11:04;100465.78;;;25.84;71.58
46955;BME280;32708;51.212;6.788;2023-07-30T05:13:30;100476.94;;;25.40;74.90
46955;BME280;32708;51.212;6.788;2023-07-30T05:15:56;100473.66;;;25.45;75.09
46955;BME280;32708;51.212;6.788;2023-07-30T05:18:23;100471.94;;;25.08;76.38
46955;BME280;32708;51.212;6.788;2023-07-30T05:20:49;100469.78;;;25.39;74.57
46955;BME280;32708;51.212;6.788;2023-07-30T05:23:15;100482.69;;;24.83;77.52
46955;BME280;32708;51.212;6.788;2023-07-30T05:25:42;100476.25;;;25.36;76.64
46955;BME280;32708;51.212;6.788;2023-07-30T05:28:08;100481.56;;;25.50;75.53
46955;BME280;32708;51.212;6.788;2023-07-30T05:30:34;100468.13;;;25.85;74.12
46955;BME280;32708;51.212;6.788;2023-07-30T05:33:00;100475.31;;;25.19;76.83
46955;BME280;32708;51.212;6.788;2023-07-30T05:35:26;100474.75;;;25.75;75.26
46955;BME280;32708;51.212;6.788;2023-07-30T05:37:52;100487.81;;;25.35;75.91
46955;BME280;32708;51.212;6.788;2023-07-30T05:40:18;100470.28;;;25.97;74.57
46955;BME280;32708;51.212;6.788;2023-07-30T05:42:45;100479.91;;;25.76;73.98
46955;BME280;32708;51.212;6.788;2023-07-30T05:45:11;100474.34;;;26.69;70.51
46955;BME280;32708;51.212;6.788;2023-07-30T05:47:38;100481.03;;;27.07;70.53
46955;BME280;32708;51.212;6.788;2023-07-30T05:50:05;100487.03;;;26.37;72.78
46955;BME280;32708;51.212;6.788;2023-07-30T05:52:32;100483.06;;;26.54;72.14
46955;BME280;32708;51.212;6.788;2023-07-30T05:54:58;100475.50;;;26.87;71.40
46955;BME280;32708;51.212;6.788;2023-07-30T05:57:25;100475.78;;;26.21;71.74
46955;BME280;32708;51.212;6.788;2023-07-30T05:59:52;100482.69;;;25.76;73.90
46955;BME280;32708;51.212;6.788;2023-07-30T06:02:18;100475.53;;;25.95;72.72
46955;BME280;32708;51.212;6.788;2023-07-30T06:04:44;100480.03;;;26.09;73.98
46955;BME280;32708;51.212;6.788;2023-07-30T06:07:12;100488.72;;;25.75;74.11
46955;BME280;32708;51.212;6.788;2023-07-30T06:09:38;100498.41;;;25.90;74.46
46955;BME280;32708;51.212;6.788;2023-07-30T06:12:05;100482.50;;;25.87;72.73
46955;BME280;32708;51.212;6.788;2023-07-30T06:14:31;100489.97;;;25.94;73.67
46955;BME280;32708;51.212;6.788;2023-07-30T06:16:57;100493.06;;;24.82;78.13
46955;BME280;32708;51.212;6.788;2023-07-30T06:19:23;100485.06;;;25.98;73.60
46955;BME280;32708;51.212;6.788;2023-07-30T06:21:50;100497.91;;;25.75;74.68
46955;BME280;32708;51.212;6.788;2023-07-30T06:24:17;100507.06;;;25.76;75.29
46955;BME280;32708;51.212;6.788;2023-07-30T06:26:43;100509.25;;;25.88;74.12
46955;BME280;32708;51.212;6.788;2023-07-30T06:29:11;100500.72;;;25.52;75.77
46955;BME280;32708;51.212;6.788;2023-07-30T06:31:37;100500.19;;;26.40;72.05
46955;BME280;32708;51.212;6.788;2023-07-30T06:34:04;100505.41;;;26.58;71.61
46955;BME280;32708;51.212;6.788;2023-07-30T06:36:30;100511.47;;;25.97;74.27
46955;BME280;32708;51.212;6.788;2023-07-30T06:38:56;100506.38;;;25.72;75.33
46955;BME280;32708;51.212;6.788;2023-07-30T06:41:23;100495.75;;;26.23;72.84
46955;BME280;32708;51.212;6.788;2023-07-30T06:43:49;100492.94;;;25.83;73.79
46955;BME280;32708;51.212;6.788;2023-07-30T06:46:15;100492.31;;;25.95;73.42
46955;BME280;32708;51.212;6.788;2023-07-30T06:48:41;100492.75;;;25.50;74.55
46955;BME280;32708;51.212;6.788;2023-07-30T06:51:09;100501.78;;;25.35;76.49
46955;BME280;32708;51.212;6.788;2023-07-30T06:53:40;100502.31;;;25.30;76.02
46955;BME280;32708;51.212;6.788;2023-07-30T06:56:06;100505.94;;;25.70;74.74
46955;BME280;32708;51.212;6.788;2023-07-30T06:58:34;100504.00;;;25.23;76.88
46955;BME280;32708;51.212;6.788;2023-07-30T07:01:01;100508.88;;;26.06;73.90
46955;BME280;32708;51.212;6.788;2023-07-30T07:03:27;100518.72;;;25.01;77.45
46955;BME280;32708;51.212;6.788;2023-07-30T07:05:55;100521.56;;;25.24;76.68
46955;BME280;32708;51.212;6.788;2023-07-30T07:08:21;100513.88;;;25.75;75.02
46955;BME280;32708;51.212;6.788;2023-07-30T07:10:48;100513.09;;;26.34;73.83
46955;BME280;32708;51.212;6.788;2023-07-30T07:13:15;100518.88;;;25.40;76.63
46955;BME280;32708;51.212;6.788;2023-07-30T07:15:43;100517.13;;;25.70;75.13
46955;BME280;32708;51.212;6.788;2023-07-30T07:18:09;100515.03;;;26.37;72.42
46955;BME280;32708;51.212;6.788;2023-07-30T07:20:37;100514.56;;;26.95;71.54
46955;BME280;32708;51.212;6.788;2023-07-30T07:23:03;100527.97;;;26.51;72.45
46955;BME280;32708;51.212;6.788;2023-07-30T07:25:30;100529.63;;;26.09;73.87
46955;BME280;32708;51.212;6.788;2023-07-30T07:27:56;100525.50;;;26.33;73.41
46955;BME280;32708;51.212;6.788;2023-07-30T07:30:22;100525.81;;;26.19;73.42
46955;BME280;32708;51.212;6.788;2023-07-30T07:32:48;100525.81;;;26.75;71.50
46955;BME280;32708;51.212;6.788;2023-07-30T07:35:21;100533.47;;;26.34;71.88
46955;BME280;32708;51.212;6.788;2023-07-30T07:37:48;100529.25;;;26.06;74.62
46955;BME280;32708;51.212;6.788;2023-07-30T07:40:15;100525.03;;;26.74;71.77
46955;BME280;32708;51.212;6.788;2023-07-30T07:42:41;100531.84;;;27.26;69.47
46955;BME280;32708;51.212;6.788;2023-07-30T07:45:07;100524.50;;;27.15;69.72
46955;BME280;32708;51.212;6.788;2023-07-30T07:47:34;100531.25;;;26.06;73.72
46955;BME280;32708;51.212;6.788;2023-07-30T07:50:00;100530.81;;;26.83;70.69
46955;BME280;32708;51.212;6.788;2023-07-30T07:52:26;100531.16;;;26.85;70.85
46955;BME280;32708;51.212;6.788;2023-07-30T07:54:53;100537.88;;;26.72;71.02
46955;BME280;32708;51.212;6.788;2023-07-30T07:57:19;100532.28;;;27.08;69.38
46955;BME280;32708;51.212;6.788;2023-07-30T07:59:45;100542.47;;;26.98;70.98
46955;BME280;32708;51.212;6.788;2023-07-30T08:02:12;100542.16;;;27.12;70.50
46955;BME280;32708;51.212;6.788;2023-07-30T08:04:38;100532.38;;;26.68;70.48
46955;BME280;32708;51.212;6.788;2023-07-30T08:07:05;100539.97;;;27.98;67.36
46955;BME280;32708;51.212;6.788;2023-07-30T08:09:31;100539.47;;;27.09;70.12
46955;BME280;32708;51.212;6.788;2023-07-30T08:11:59;100542.50;;;27.47;69.33
46955;BME280;32708;51.212;6.788;2023-07-30T08:14:27;100543.88;;;26.90;71.57
46955;BME280;32708;51.212;6.788;2023-07-30T08:16:53;100540.28;;;26.73;70.48
46955;BME280;32708;51.212;6.788;2023-07-30T08:19:20;100541.22;;;26.67;71.17
46955;BME280;32708;51.212;6.788;2023-07-30T08:21:49;100536.22;;;27.27;70.10
46955;BME280;32708;51.212;6.788;2023-07-30T08:24:15;100530.50;;;27.92;67.06
46955;BME280;32708;51.212;6.788;2023-07-30T08:26:42;100537.59;;;27.51;68.33
46955;BME280;32708;51.212;6.788;2023-07-30T08:29:08;100541.19;;;27.68;66.95
46955;BME280;32708;51.212;6.788;2023-07-30T08:31:36;100535.63;;;27.64;68.18
46955;BME280;32708;51.212;6.788;2023-07-30T08:34:02;100525.88;;;28.82;63.94
46955;BME280;32708;51.212;6.788;2023-07-30T08:36:28;100536.69;;;27.87;66.77
46955;BME280;32708;51.212;6.788;2023-07-30T08:38:54;100528.50;;;27.47;68.04
46955;BME280;32708;51.212;6.788;2023-07-30T08:41:20;100542.69;;;28.02;66.78
46955;BME280;32708;51.212;6.788;2023-07-30T08:43:47;100542.69;;;27.07;69.05
46955;BME280;32708;51.212;6.788;2023-07-30T08:46:17;100541.00;;;27.59;67.81
46955;BME280;32708;51.212;6.788;2023-07-30T08:48:44;100551.84;;;27.89;66.90
46955;BME280;32708;51.212;6.788;2023-07-30T08:51:13;100546.47;;;27.33;68.85
46955;BME280;32708;51.212;6.788;2023-07-30T08:53:42;100549.09;;;27.73;67.75
46955;BME280;32708;51.212;6.788;2023-07-30T08:56:10;100546.13;;;27.15;68.25
46955;BME280;32708;51.212;6.788;2023-07-30T08:58:38;100546.53;;;27.13;69.14
46955;BME280;32708;51.212;6.788;2023-07-30T09:01:09;100553.66;;;27.18;68.02
46955;BME280;32708;51.212;6.788;2023-07-30T09:03:40;100554.53;;;27.93;66.04
46955;BME280;32708;51.212;6.788;2023-07-30T09:06:07;100561.25;;;27.34;67.12
46955;BME280;32708;51.212;6.788;2023-07-30T09:08:33;100562.25;;;26.91;68.18
46955;BME280;32708;51.212;6.788;2023-07-30T09:11:10;100566.00;;;27.98;64.04
46955;BME280;32708;51.212;6.788;2023-07-30T09:13:38;100563.19;;;27.53;65.29
46955;BME280;32708;51.212;6.788;2023-07-30T09:16:13;100573.88;;;27.75;65.49
46955;BME280;32708;51.212;6.788;2023-07-30T09:18:45;100571.19;;;28.29;63.20
46955;BME280;32708;51.212;6.788;2023-07-30T09:21:13;100566.56;;;28.90;60.60
46955;BME280;32708;51.212;6.788;2023-07-30T09:23:47;100559.63;;;30.36;56.48
46955;BME280;32708;51.212;6.788;2023-07-30T09:26:14;100568.34;;;29.47;56.74
46955;BME280;32708;51.212;6.788;2023-07-30T09:28:40;100570.88;;;30.36;55.72
46955;BME280;32708;51.212;6.788;2023-07-30T09:31:08;100574.28;;;29.49;56.26
46955;BME280;32708;51.212;6.788;2023-07-30T09:33:40;100575.31;;;29.43;56.34
46955;BME280;32708;51.212;6.788;2023-07-30T09:36:10;100574.00;;;29.34;56.58
46955;BME280;32708;51.212;6.788;2023-07-30T09:38:41;100572.63;;;30.43;53.33
46955;BME280;32708;51.212;6.788;2023-07-30T09:41:08;100559.91;;;30.60;53.45
46955;BME280;32708;51.212;6.788;2023-07-30T09:43:36;100569.47;;;30.94;51.67
46955;BME280;32708;51.212;6.788;2023-07-30T09:46:05;100579.88;;;29.02;57.55
46955;BME280;32708;51.212;6.788;2023-07-30T09:48:34;100582.19;;;28.78;58.08
46955;BME280;32708;51.212;6.788;2023-07-30T09:51:03;100577.28;;;30.90;54.20
46955;BME280;32708;51.212;6.788;2023-07-30T09:53:34;100575.19;;;30.72;52.23
46955;BME280;32708;51.212;6.788;2023-07-30T09:56:05;100572.88;;;30.14;52.61
46955;BME280;32708;51.212;6.788;2023-07-30T09:58:34;100569.75;;;30.12;52.56
46955;BME280;32708;51.212;6.788;2023-07-30T10:01:04;100568.72;;;29.84;54.15
46955;BME280;32708;51.212;6.788;2023-07-30T10:03:35;100562.19;;;30.53;51.33
46955;BME280;32708;51.212;6.788;2023-07-30T10:06:05;100565.34;;;29.29;52.75
46955;BME280;32708;51.212;6.788;2023-07-30T10:08:39;100565.75;;;28.64;54.28
46955;BME280;32708;51.212;6.788;2023-07-30T10:11:09;100560.47;;;29.55;53.04
46955;BME280;32708;51.212;6.788;2023-07-30T10:13:40;100576.16;;;28.92;54.88
46955;BME280;32708;51.212;6.788;2023-07-30T10:16:11;100558.81;;;28.68;54.39
46955;BME280;32708;51.212;6.788;2023-07-30T10:18:43;100556.22;;;30.07;51.79
46955;BME280;32708;51.212;6.788;2023-07-30T10:21:22;100561.81;;;30.94;49.69
46955;BME280;32708;51.212;6.788;2023-07-30T10:24:03;100560.41;;;30.15;50.49
46955;BME280;32708;51.212;6.788;2023-07-30T10:26:33;100555.78;;;29.26;53.37
46955;BME280;32708;51.212;6.788;2023-07-30T10:29:19;100566.66;;;28.61;54.87
46955;BME280;32708;51.212;6.788;2023-07-30T10:31:54;100564.91;;;28.79;55.70
46955;BME280;32708;51.212;6.788;2023-07-30T10:34:45;100565.09;;;28.85;55.47
46955;BME280;32708;51.212;6.788;2023-07-30T10:37:17;100567.06;;;29.01;54.64
46955;BME280;32708;51.212;6.788;2023-07-30T10:39:51;100557.56;;;29.58;52.67
46955;BME280;32708;51.212;6.788;2023-07-30T10:42:17;100559.78;;;30.95;51.09
46955;BME280;32708;51.212;6.788;2023-07-30T10:44:45;100559.22;;;29.91;50.51
46955;BME280;32708;51.212;6.788;2023-07-30T10:47:12;100552.13;;;29.64;49.82
46955;BME280;32708;51.212;6.788;2023-07-30T10:49:40;100556.63;;;29.62;49.33
46955;BME280;32708;51.212;6.788;2023-07-30T10:52:13;100555.50;;;30.59;47.63
46955;BME280;32708;51.212;6.788;2023-07-30T10:54:39;100543.25;;;30.53;47.42
46955;BME280;32708;51.212;6.788;2023-07-30T10:57:06;100549.06;;;30.28;46.55
46955;BME280;32708;51.212;6.788;2023-07-30T10:59:39;100548.75;;;30.57;44.91
46955;BME280;32708;51.212;6.788;2023-07-30T11:02:06;100556.31;;;29.59;47.79
46955;BME280;32708;51.212;6.788;2023-07-30T11:04:35;100546.44;;;29.77;47.23
46955;BME280;32708;51.212;6.788;2023-07-30T11:07:01;100552.94;;;30.74;45.60
46955;BME280;32708;51.212;6.788;2023-07-30T11:09:32;100558.91;;;29.88;46.68
46955;BME280;32708;51.212;6.788;2023-07-30T11:11:58;100558.78;;;29.57;46.55
46955;BME280;32708;51.212;6.788;2023-07-30T11:14:25;100555.00;;;30.08;46.82
46955;BME280;32708;51.212;6.788;2023-07-30T11:16:58;100551.53;;;30.26;45.68
46955;BME280;32708;51.212;6.788;2023-07-30T11:19:29;100550.69;;;30.38;45.21
46955;BME280;32708;51.212;6.788;2023-07-30T11:21:57;100550.53;;;30.94;44.81
46955;BME280;32708;51.212;6.788;2023-07-30T11:24:35;100553.41;;;30.73;45.21
46955;BME280;32708;51.212;6.788;2023-07-30T11:27:03;100564.53;;;29.88;46.20
46955;BME280;32708;51.212;6.788;2023-07-30T11:29:29;100573.31;;;29.56;46.66
46955;BME280;32708;51.212;6.788;2023-07-30T11:31:57;100580.00;;;30.06;46.90
46955;BME280;32708;51.212;6.788;2023-07-30T11:34:26;100574.28;;;29.75;47.28
46955;BME280;32708;51.212;6.788;2023-07-30T11:36:55;100588.69;;;29.64;47.14
46955;BME280;32708;51.212;6.788;2023-07-30T11:39:24;100581.63;;;29.59;48.14
46955;BME280;32708;51.212;6.788;2023-07-30T11:41:51;100580.94;;;29.43;47.88
46955;BME280;32708;51.212;6.788;2023-07-30T11:44:33;100584.69;;;29.14;49.34
46955;BME280;32708;51.212;6.788;2023-07-30T11:47:00;100592.19;;;29.68;48.72
46955;BME280;32708;51.212;6.788;2023-07-30T11:49:27;100587.56;;;29.49;49.95
46955;BME280;32708;51.212;6.788;2023-07-30T11:52:08;100587.44;;;30.34;47.99
46955;BME280;32708;51.212;6.788;2023-07-30T11:54:34;100591.94;;;29.75;50.16
46955;BME280;32708;51.212;6.788;2023-07-30T11:57:01;100580.72;;;30.63;48.15
46955;BME280;32708;51.212;6.788;2023-07-30T11:59:27;100600.53;;;30.50;48.19
46955;BME280;32708;51.212;6.788;2023-07-30T12:01:54;100581.75;;;30.78;46.10
46955;BME280;32708;51.212;6.788;2023-07-30T12:04:21;100602.69;;;30.68;46.53
46955;BME280;32708;51.212;6.788;2023-07-30T12:06:49;100603.69;;;29.61;48.24
46955;BME280;32708;51.212;6.788;2023-07-30T12:09:19;100609.59;;;30.45;47.15
46955;BME280;32708;51.212;6.788;2023-07-30T12:11:55;100619.38;;;30.62;47.19
46955;BME280;32708;51.212;6.788;2023-07-30T12:14:27;100623.78;;;30.07;46.55
46955;BME280;32708;51.212;6.788;2023-07-30T12:17:01;100623.59;;;29.28;47.28
46955;BME280;32708;51.212;6.788;2023-07-30T12:19:28;100631.13;;;30.04;45.29
46955;BME280;32708;51.212;6.788;2023-07-30T12:21:54;100632.16;;;29.98;44.95
46955;BME280;32708;51.212;6.788;2023-07-30T12:24:20;100631.94;;;29.19;46.49
46955;BME280;32708;51.212;6.788;2023-07-30T12:26:48;100627.66;;;29.27;46.08
46955;BME280;32708;51.212;6.788;2023-07-30T12:29:14;100623.56;;;28.36;47.50
46955;BME280;32708;51.212;6.788;2023-07-30T12:31:42;100638.00;;;29.05;45.93
46955;BME280;32708;51.212;6.788;2023-07-30T12:34:09;100633.09;;;28.67;45.27
46955;BME280;32708;51.212;6.788;2023-07-30T12:36:36;100644.19;;;29.13;44.93
46955;BME280;32708;51.212;6.788;2023-07-30T12:39:02;100634.63;;;29.10;45.01
46955;BME280;32708;51.212;6.788;2023-07-30T12:41:28;100638.09;;;29.14;45.49
46955;BME280;32708;51.212;6.788;2023-07-30T12:43:56;100638.00;;;28.50;46.82
46955;BME280;32708;51.212;6.788;2023-07-30T12:46:25;100633.97;;;29.31;45.79
46955;BME280;32708;51.212;6.788;2023-07-30T12:48:59;100619.13;;;29.91;44.57
46955;BME280;32708;51.212;6.788;2023-07-30T12:51:33;100629.81;;;29.23;45.25